Time;durP1;ratioP1;P1;durP2;ratioP2;P2;SDS_P1;SDS_P2;PMS_P1;PMS_P2;Temp;Humidity;BMP_temperature;BMP_pressure;BME280_temperature;BME280_humidity;BME280_pressure;Samples;Min_cycle;Max_cycle;Signal;HPM_P1;HPM_P2
2021/01/02 00:00:09;;;;;;;57.57;28.20;;;;;;;;;;5073972;28;20512;-72
2021/01/02 00:02:43;;;;;;;54.93;28.43;;;;;;;;;;5059024;28;20192;-72
2021/01/02 00:05:09;;;;;;;62.13;28.40;;;;;;;;;;5074169;28;20647;-72
2021/01/02 00:07:57;;;;;;;54.63;28.80;;;;;;;;;;5064701;28;20269;-73
2021/01/02 00:10:27;;;;;;;56.23;28.27;;;;;;;;;;5075578;28;20207;-72
2021/01/02 00:13:29;;;;;;;58.93;29.40;;;;;;;;;;5069076;28;20269;-72
2021/01/02 00:16:23;;;;;;;58.17;29.13;;;;;;;;;;5069237;28;20233;-72
2021/01/02 00:19:26;;;;;;;55.83;28.80;;;;;;;;;;5058526;28;20188;-72
2021/01/02 00:22:09;;;;;;;59.73;28.93;;;;;;;;;;5067400;28;20199;-73
2021/01/02 00:24:42;;;;;;;59.83;30.77;;;;;;;;;;5076553;28;20196;-70
2021/01/02 00:27:11;;;;;;;56.07;28.10;;;;;;;;;;5068111;28;20206;-72
2021/01/02 00:30:03;;;;;;;60.63;29.97;;;;;;;;;;5060301;28;20592;-73
2021/01/02 00:32:43;;;;;;;56.23;28.43;;;;;;;;;;5068402;28;20223;-72
2021/01/02 00:35:21;;;;;;;53.37;27.30;;;;;;;;;;5078451;28;20191;-72
2021/01/02 00:37:53;;;;;;;58.00;29.57;;;;;;;;;;5067402;28;20680;-72
2021/01/02 00:40:20;;;;;;;57.37;28.60;;;;;;;;;;5077172;28;20238;-72
2021/01/02 00:42:49;;;;;;;58.40;28.07;;;;;;;;;;5064788;28;21034;-72
2021/01/02 00:45:22;;;;;;;54.70;27.80;;;;;;;;;;5059513;28;20535;-72
2021/01/02 00:47:48;;;;;;;54.47;27.90;;;;;;;;;;5048484;28;20283;-72
2021/01/02 00:50:15;;;;;;;58.53;28.80;;;;;;;;;;5079516;28;20772;-72
2021/01/02 00:52:47;;;;;;;52.20;27.40;;;;;;;;;;5075050;28;20753;-72
2021/01/02 00:55:24;;;;;;;58.70;28.57;;;;;;;;;;5068600;28;20184;-72
2021/01/02 00:57:49;;;;;;;52.07;27.20;;;;;;;;;;5076936;28;20197;-73
2021/01/02 01:00:16;;;;;;;66.77;29.00;;;;;;;;;;5069824;28;20184;-72
2021/01/02 01:02:55;;;;;;;58.33;28.23;;;;;;;;;;5073845;28;20685;-72
2021/01/02 01:05:22;;;;;;;55.73;27.97;;;;;;;;;;5068260;28;20632;-72
2021/01/02 01:07:55;;;;;;;58.53;29.27;;;;;;;;;;5075188;28;20212;-72
2021/01/02 01:10:29;;;;;;;62.60;29.63;;;;;;;;;;5069515;28;20760;-72
2021/01/02 01:13:03;;;;;;;57.67;28.27;;;;;;;;;;5074101;28;20769;-72
2021/01/02 01:15:29;;;;;;;58.30;28.10;;;;;;;;;;5049759;28;20745;-72
2021/01/02 01:18:17;;;;;;;54.97;27.53;;;;;;;;;;5079283;28;20596;-72
2021/01/02 01:21:05;;;;;;;59.43;28.67;;;;;;;;;;5056680;28;20223;-72
2021/01/02 01:23:50;;;;;;;58.80;28.07;;;;;;;;;;5063272;28;20280;-72
2021/01/02 01:26:33;;;;;;;57.43;27.10;;;;;;;;;;5072032;28;20188;-73
2021/01/02 01:29:01;;;;;;;63.07;27.87;;;;;;;;;;5082522;28;20713;-72
2021/01/02 01:31:30;;;;;;;56.83;27.30;;;;;;;;;;5073071;28;20676;-72
2021/01/02 01:34:00;;;;;;;56.93;28.23;;;;;;;;;;5079009;28;20222;-72
2021/01/02 01:36:34;;;;;;;61.33;27.83;;;;;;;;;;5057897;28;20230;-72
2021/01/02 01:39:03;;;;;;;57.17;27.37;;;;;;;;;;5080419;28;20279;-73
2021/01/02 01:41:36;;;;;;;59.80;28.80;;;;;;;;;;5070262;28;20261;-72
2021/01/02 01:44:05;;;;;;;61.63;28.57;;;;;;;;;;5085919;28;20616;-72
2021/01/02 01:46:49;;;;;;;57.80;28.13;;;;;;;;;;5072936;28;20282;-72
2021/01/02 01:49:29;;;;;;;56.53;27.47;;;;;;;;;;5078033;28;20294;-73
2021/01/02 01:52:12;;;;;;;56.50;28.03;;;;;;;;;;5053349;28;20768;-72
2021/01/02 01:55:05;;;;;;;61.17;29.47;;;;;;;;;;5068881;28;20736;-72
2021/01/02 01:57:35;;;;;;;58.73;28.70;;;;;;;;;;5070003;28;20704;-72
2021/01/02 02:00:14;;;;;;;55.03;27.37;;;;;;;;;;5081053;28;20203;-72
2021/01/02 02:02:39;;;;;;;59.87;28.10;;;;;;;;;;5053789;28;20596;-72
2021/01/02 02:05:10;;;;;;;61.73;28.60;;;;;;;;;;5077549;28;20188;-72
2021/01/02 02:07:53;;;;;;;61.97;29.60;;;;;;;;;;5072559;28;20241;-72
2021/01/02 02:10:42;;;;;;;58.60;29.33;;;;;;;;;;5078697;28;20215;-72
2021/01/02 02:13:20;;;;;;;67.87;29.33;;;;;;;;;;5072001;28;20538;-72
2021/01/02 02:15:55;;;;;;;56.47;28.00;;;;;;;;;;5060278;28;20184;-70
2021/01/02 02:18:22;;;;;;;62.47;28.90;;;;;;;;;;5070130;28;20548;-72
2021/01/02 02:20:53;;;;;;;55.60;28.10;;;;;;;;;;5062340;28;20195;-72
2021/01/02 02:23:46;;;;;;;62.07;28.53;;;;;;;;;;5070217;28;20192;-72
2021/01/02 02:26:30;;;;;;;62.50;29.60;;;;;;;;;;5083819;28;20638;-72
2021/01/02 02:29:13;;;;;;;70.17;31.13;;;;;;;;;;5069774;28;20631;-72
2021/01/02 02:31:43;;;;;;;66.70;32.67;;;;;;;;;;5077556;28;20262;-72
2021/01/02 02:34:09;;;;;;;65.37;30.90;;;;;;;;;;5074445;28;20605;-73
2021/01/02 02:36:35;;;;;;;62.83;29.83;;;;;;;;;;5084014;28;20350;-72
2021/01/02 02:39:21;;;;;;;60.93;28.83;;;;;;;;;;5063273;28;20192;-72
2021/01/02 02:41:52;;;;;;;65.57;30.07;;;;;;;;;;5088972;28;20179;-72
2021/01/02 02:44:21;;;;;;;70.90;31.10;;;;;;;;;;5059967;28;20330;-73
2021/01/02 02:46:47;;;;;;;71.50;31.37;;;;;;;;;;5077915;28;20191;-72
2021/01/02 02:49:18;;;;;;;67.63;30.87;;;;;;;;;;5085370;28;20184;-70
2021/01/02 02:52:08;;;;;;;73.63;31.10;;;;;;;;;;5082000;28;20202;-72
2021/01/02 02:54:33;;;;;;;64.20;30.30;;;;;;;;;;5073156;28;20187;-73
2021/01/02 02:56:59;;;;;;;68.00;31.53;;;;;;;;;;5088501;28;20184;-73
2021/01/02 02:59:24;;;;;;;64.17;30.37;;;;;;;;;;5082237;28;20191;-72
2021/01/02 03:01:50;;;;;;;70.70;31.77;;;;;;;;;;5071073;28;20180;-72
2021/01/02 03:04:15;;;;;;;76.57;32.47;;;;;;;;;;5082993;28;20279;-72
2021/01/02 03:06:42;;;;;;;75.77;31.37;;;;;;;;;;5075966;28;20248;-72
2021/01/02 03:09:09;;;;;;;74.47;30.70;;;;;;;;;;5080385;28;20258;-73
2021/01/02 03:11:35;;;;;;;75.30;32.53;;;;;;;;;;5065871;28;20214;-72
2021/01/02 03:14:00;;;;;;;78.97;31.67;;;;;;;;;;5079925;28;20192;-72
2021/01/02 03:16:26;;;;;;;75.53;30.70;;;;;;;;;;5067839;28;20686;-72
2021/01/02 03:18:51;;;;;;;72.37;31.63;;;;;;;;;;5079891;28;20198;-72
2021/01/02 03:21:16;;;;;;;74.40;32.50;;;;;;;;;;5082798;28;21775;-72
2021/01/02 03:23:49;;;;;;;70.50;31.03;;;;;;;;;;5081133;28;20192;-72
2021/01/02 03:26:16;;;;;;;70.30;30.73;;;;;;;;;;5082225;28;21104;-71
2021/01/02 03:28:54;;;;;;;69.63;31.37;;;;;;;;;;5084216;28;20256;-71
2021/01/02 03:31:20;;;;;;;74.97;32.40;;;;;;;;;;5085855;28;20218;-71
2021/01/02 03:33:45;;;;;;;70.60;31.77;;;;;;;;;;5071341;28;20187;-71
2021/01/02 03:36:11;;;;;;;75.70;30.60;;;;;;;;;;5075109;28;20271;-71
2021/01/02 03:38:38;;;;;;;75.07;32.63;;;;;;;;;;5071517;28;20248;-71
2021/01/02 03:41:04;;;;;;;62.70;29.83;;;;;;;;;;5070978;28;20211;-71
2021/01/02 03:43:29;;;;;;;88.43;33.60;;;;;;;;;;5073203;28;20679;-71
2021/01/02 03:45:55;;;;;;;74.23;31.53;;;;;;;;;;5079608;28;20188;-71
2021/01/02 03:48:21;;;;;;;78.17;31.47;;;;;;;;;;5075775;28;20669;-71
2021/01/02 03:50:46;;;;;;;76.50;33.87;;;;;;;;;;5081126;28;20208;-71
2021/01/02 03:53:12;;;;;;;76.53;32.77;;;;;;;;;;5053593;28;20187;-71
2021/01/02 03:55:37;;;;;;;78.57;32.97;;;;;;;;;;5082788;28;20188;-71
2021/01/02 03:58:03;;;;;;;77.67;31.90;;;;;;;;;;5071010;28;20186;-71
2021/01/02 04:00:28;;;;;;;84.47;33.37;;;;;;;;;;5086945;28;20211;-71
2021/01/02 04:02:53;;;;;;;82.73;33.93;;;;;;;;;;5080121;28;20211;-71
2021/01/02 04:05:19;;;;;;;81.50;35.00;;;;;;;;;;5061521;28;20736;-72
2021/01/02 04:07:44;;;;;;;74.63;32.17;;;;;;;;;;5078555;28;20227;-72
2021/01/02 04:10:10;;;;;;;84.53;33.33;;;;;;;;;;5070066;28;20757;-72
2021/01/02 04:12:35;;;;;;;83.60;34.90;;;;;;;;;;5077275;28;20310;-72
2021/01/02 04:15:01;;;;;;;85.13;33.40;;;;;;;;;;5060810;28;20187;-72
2021/01/02 04:17:26;;;;;;;84.67;35.97;;;;;;;;;;5080129;28;20168;-72
2021/01/02 04:19:51;;;;;;;89.30;36.40;;;;;;;;;;5055733;28;20554;-72
2021/01/02 04:22:17;;;;;;;80.63;34.60;;;;;;;;;;5065133;28;20742;-72
2021/01/02 04:24:42;;;;;;;87.07;36.43;;;;;;;;;;5058567;28;20195;-72
2021/01/02 04:27:08;;;;;;;78.03;34.47;;;;;;;;;;5079737;28;20191;-72
2021/01/02 04:29:33;;;;;;;84.07;34.87;;;;;;;;;;5059383;28;20180;-72
2021/01/02 04:32:00;;;;;;;85.83;36.07;;;;;;;;;;5076950;28;20264;-72
2021/01/02 04:34:26;;;;;;;81.00;33.40;;;;;;;;;;5080134;28;20180;-72
2021/01/02 04:36:52;;;;;;;80.60;34.63;;;;;;;;;;5074265;28;20227;-72
2021/01/02 04:39:19;;;;;;;81.10;34.77;;;;;;;;;;5081839;28;20198;-72
2021/01/02 04:41:45;;;;;;;85.20;33.93;;;;;;;;;;5062514;28;20648;-72
2021/01/02 04:44:11;;;;;;;74.67;33.70;;;;;;;;;;5086289;28;20196;-72
2021/01/02 04:46:37;;;;;;;80.00;34.93;;;;;;;;;;5074146;28;20665;-72
2021/01/02 04:49:06;;;;;;;89.43;35.47;;;;;;;;;;5087028;28;20188;-72
2021/01/02 04:51:32;;;;;;;80.83;34.33;;;;;;;;;;5075048;28;20299;-71
2021/01/02 04:54:05;;;;;;;84.03;35.47;;;;;;;;;;5075659;28;20251;-71
2021/01/02 04:56:40;;;;;;;79.77;35.77;;;;;;;;;;5077830;28;20210;-72
2021/01/02 04:59:11;;;;;;;77.13;33.93;;;;;;;;;;5084404;28;20645;-72
2021/01/02 05:01:38;;;;;;;83.97;35.20;;;;;;;;;;5067698;28;20167;-72
2021/01/02 05:04:05;;;;;;;76.30;34.43;;;;;;;;;;5087775;28;20190;-72
2021/01/02 05:06:30;;;;;;;72.53;33.00;;;;;;;;;;5087693;28;20207;-72
2021/01/02 05:08:56;;;;;;;78.00;34.73;;;;;;;;;;5075567;28;20186;-72
2021/01/02 05:11:23;;;;;;;83.27;35.40;;;;;;;;;;5087889;28;20314;-72
2021/01/02 05:13:49;;;;;;;90.17;36.57;;;;;;;;;;5076175;28;20761;-72
2021/01/02 05:16:44;;;;;;;81.40;33.90;;;;;;;;;;5085144;28;20275;-72
2021/01/02 05:19:10;;;;;;;79.90;34.77;;;;;;;;;;5072179;28;20188;-72
2021/01/02 05:21:37;;;;;;;75.90;33.57;;;;;;;;;;5080563;28;20183;-72
2021/01/02 05:24:07;;;;;;;73.07;34.67;;;;;;;;;;5076972;28;20688;-72
2021/01/02 05:26:33;;;;;;;78.63;35.13;;;;;;;;;;5099347;28;20179;-72
2021/01/02 05:29:17;;;;;;;80.27;36.77;;;;;;;;;;5062729;28;20275;-72
2021/01/02 05:31:51;;;;;;;74.67;35.27;;;;;;;;;;5087808;28;20286;-73
2021/01/02 05:34:19;;;;;;;75.20;35.13;;;;;;;;;;5079795;28;20183;-72
2021/01/02 05:36:45;;;;;;;78.63;36.10;;;;;;;;;;5092767;28;20233;-72
2021/01/02 05:39:11;;;;;;;79.27;34.40;;;;;;;;;;5080949;28;20661;-72
2021/01/02 05:41:48;;;;;;;74.83;35.70;;;;;;;;;;5096714;28;20187;-72
2021/01/02 05:44:14;;;;;;;72.73;35.53;;;;;;;;;;5083320;28;20183;-72
2021/01/02 05:46:44;;;;;;;77.00;35.77;;;;;;;;;;5090260;28;20221;-72
2021/01/02 05:49:28;;;;;;;76.57;33.90;;;;;;;;;;5082202;28;20195;-72
2021/01/02 05:52:22;;;;;;;78.57;36.13;;;;;;;;;;5093994;28;20277;-72
2021/01/02 05:54:48;;;;;;;78.67;36.67;;;;;;;;;;5062780;28;20246;-72
2021/01/02 05:57:24;;;;;;;72.53;36.60;;;;;;;;;;5095093;28;20198;-73
2021/01/02 05:59:53;;;;;;;74.70;36.43;;;;;;;;;;5084875;28;20194;-73
2021/01/02 06:02:26;;;;;;;76.63;36.67;;;;;;;;;;5088884;28;20700;-73
2021/01/02 06:05:00;;;;;;;72.33;34.77;;;;;;;;;;5068743;28;20582;-73
2021/01/02 06:07:28;;;;;;;80.23;37.77;;;;;;;;;;5072051;28;20203;-73
2021/01/02 06:09:54;;;;;;;76.40;35.97;;;;;;;;;;5099091;28;20187;-73
2021/01/02 06:12:43;;;;;;;81.90;38.23;;;;;;;;;;5066915;28;20198;-73
2021/01/02 06:15:16;;;;;;;73.70;35.03;;;;;;;;;;5073651;28;20208;-73
2021/01/02 06:17:43;;;;;;;72.50;36.60;;;;;;;;;;5075797;28;20176;-73
2021/01/02 06:20:11;;;;;;;76.37;37.50;;;;;;;;;;5076193;28;20187;-73
2021/01/02 06:22:38;;;;;;;78.93;38.30;;;;;;;;;;5076937;28;20188;-73
2021/01/02 06:25:07;;;;;;;81.50;37.47;;;;;;;;;;5090314;28;20663;-73
2021/01/02 06:27:37;;;;;;;86.47;38.53;;;;;;;;;;5060196;28;20207;-73
2021/01/02 06:30:02;;;;;;;82.27;37.60;;;;;;;;;;5089417;28;20739;-74
2021/01/02 06:32:28;;;;;;;84.57;38.47;;;;;;;;;;5080720;28;20247;-73
2021/01/02 06:35:16;;;;;;;85.10;39.03;;;;;;;;;;5087932;28;20670;-73
2021/01/02 06:37:45;;;;;;;92.70;40.30;;;;;;;;;;5060254;28;20633;-73
2021/01/02 06:40:20;;;;;;;83.30;40.27;;;;;;;;;;5087800;28;20188;-73
2021/01/02 06:42:53;;;;;;;83.87;38.77;;;;;;;;;;5079410;28;20184;-73
2021/01/02 06:45:43;;;;;;;85.60;39.97;;;;;;;;;;5089088;28;20188;-73
2021/01/02 06:48:23;;;;;;;83.40;39.47;;;;;;;;;;5079257;28;20203;-73
2021/01/02 06:50:50;;;;;;;88.23;41.33;;;;;;;;;;5086474;28;21360;-73
2021/01/02 06:53:19;;;;;;;82.10;38.83;;;;;;;;;;5079653;28;20198;-73
2021/01/02 06:55:45;;;;;;;87.50;40.23;;;;;;;;;;5085258;28;20213;-73
2021/01/02 06:58:15;;;;;;;91.20;40.80;;;;;;;;;;5081328;28;20288;-73
2021/01/02 07:00:40;;;;;;;92.57;40.43;;;;;;;;;;5085842;28;20192;-73
2021/01/02 07:03:28;;;;;;;87.83;42.40;;;;;;;;;;5080957;28;20218;-73
2021/01/02 07:05:54;;;;;;;88.93;42.37;;;;;;;;;;5077069;28;20219;-73
2021/01/02 07:08:38;;;;;;;94.97;43.60;;;;;;;;;;5079883;28;20184;-73
2021/01/02 07:11:23;;;;;;;88.03;42.00;;;;;;;;;;5084136;28;20203;-73
2021/01/02 07:13:49;;;;;;;96.63;42.03;;;;;;;;;;5068352;28;20180;-73
2021/01/02 07:16:30;;;;;;;90.03;41.03;;;;;;;;;;5088294;28;20663;-73
2021/01/02 07:18:56;;;;;;;92.17;41.83;;;;;;;;;;5069989;28;20192;-73
2021/01/02 07:21:39;;;;;;;87.67;38.73;;;;;;;;;;5085634;28;20186;-73
2021/01/02 07:24:23;;;;;;;82.77;39.60;;;;;;;;;;5078409;28;20198;-73
2021/01/02 07:27:15;;;;;;;88.40;41.77;;;;;;;;;;4361481;28;10000749;-73
2021/01/02 07:29:48;;;;;;;87.37;40.17;;;;;;;;;;5051398;28;20696;-73
2021/01/02 07:32:15;;;;;;;96.57;43.17;;;;;;;;;;5082651;28;20188;-73
2021/01/02 07:34:43;;;;;;;91.77;42.57;;;;;;;;;;5054480;28;20199;-73
2021/01/02 07:37:11;;;;;;;91.60;43.70;;;;;;;;;;5084360;28;20232;-73
2021/01/02 07:39:38;;;;;;;101.07;44.57;;;;;;;;;;5072271;28;20199;-73
2021/01/02 07:42:09;;;;;;;104.03;43.93;;;;;;;;;;5081666;28;20188;-73
2021/01/02 07:44:35;;;;;;;100.90;43.67;;;;;;;;;;5082093;28;20192;-73
2021/01/02 07:47:01;;;;;;;92.73;42.33;;;;;;;;;;5075276;28;20210;-73
2021/01/02 07:49:26;;;;;;;94.30;43.10;;;;;;;;;;5080189;28;20236;-73
2021/01/02 07:51:52;;;;;;;96.90;44.30;;;;;;;;;;5072598;28;20553;-73
2021/01/02 07:54:37;;;;;;;100.10;44.93;;;;;;;;;;5080496;28;20192;-72
2021/01/02 07:57:05;;;;;;;93.20;43.47;;;;;;;;;;5059140;28;20203;-72
2021/01/02 07:59:40;;;;;;;96.33;43.37;;;;;;;;;;5079013;28;20188;-72
2021/01/02 08:02:08;;;;;;;103.50;45.73;;;;;;;;;;5075260;28;20190;-72
2021/01/02 08:04:35;;;;;;;91.13;41.77;;;;;;;;;;5082866;28;20180;-72
2021/01/02 08:07:06;;;;;;;92.10;43.60;;;;;;;;;;5070912;28;20304;-72
2021/01/02 08:09:34;;;;;;;97.10;43.77;;;;;;;;;;5084514;28;20180;-72
2021/01/02 08:12:01;;;;;;;87.00;41.23;;;;;;;;;;5076531;28;20512;-72
2021/01/02 08:14:29;;;;;;;86.90;42.07;;;;;;;;;;5059760;28;20622;-72
2021/01/02 08:17:02;;;;;;;86.87;41.67;;;;;;;;;;5062851;28;20648;-72
2021/01/02 08:19:32;;;;;;;89.33;42.73;;;;;;;;;;5064663;28;20184;-72
2021/01/02 08:21:59;;;;;;;88.67;43.43;;;;;;;;;;5073235;28;20187;-72
2021/01/02 08:24:24;;;;;;;93.80;42.67;;;;;;;;;;5082599;28;20242;-72
2021/01/02 08:26:50;;;;;;;84.10;42.57;;;;;;;;;;5076217;28;20196;-72
2021/01/02 08:29:16;;;;;;;81.93;40.77;;;;;;;;;;5080477;28;20190;-73
2021/01/02 08:31:51;;;;;;;85.33;41.67;;;;;;;;;;5075930;28;20211;-72
2021/01/02 08:34:24;;;;;;;91.97;41.73;;;;;;;;;;5074671;28;20195;-72
2021/01/02 08:36:50;;;;;;;82.70;40.27;;;;;;;;;;5058795;28;20423;-72
2021/01/02 08:39:19;;;;;;;84.37;41.30;;;;;;;;;;5050161;28;20297;-72
2021/01/02 08:41:55;;;;;;;90.63;42.10;;;;;;;;;;5060646;28;20177;-72
2021/01/02 08:44:30;;;;;;;85.67;39.80;;;;;;;;;;5056113;28;20212;-72
2021/01/02 08:46:56;;;;;;;81.40;39.77;;;;;;;;;;5062816;28;20200;-72
2021/01/02 08:49:33;;;;;;;90.50;41.00;;;;;;;;;;5058629;28;20521;-72
2021/01/02 08:52:18;;;;;;;81.03;40.67;;;;;;;;;;5045416;28;20628;-72
2021/01/02 08:54:43;;;;;;;88.80;41.93;;;;;;;;;;5056985;28;20203;-72
2021/01/02 08:57:26;;;;;;;84.27;41.20;;;;;;;;;;5042055;28;20185;-72
2021/01/02 08:59:51;;;;;;;80.57;38.93;;;;;;;;;;5058614;28;20196;-72
2021/01/02 09:02:17;;;;;;;82.43;40.90;;;;;;;;;;5062061;28;20219;-72
2021/01/02 09:04:58;;;;;;;87.23;41.13;;;;;;;;;;5052904;28;20662;-72
2021/01/02 09:07:23;;;;;;;80.43;39.87;;;;;;;;;;5059658;28;20250;-72
2021/01/02 09:09:48;;;;;;;81.33;38.93;;;;;;;;;;5055468;28;20196;-72
2021/01/02 09:12:18;;;;;;;83.37;40.20;;;;;;;;;;5063848;28;20195;-72
2021/01/02 09:14:50;;;;;;;76.87;39.57;;;;;;;;;;5054270;28;20731;-72
2021/01/02 09:17:15;;;;;;;78.27;38.43;;;;;;;;;;5062636;28;20222;-72
2021/01/02 09:19:41;;;;;;;74.67;37.00;;;;;;;;;;5055845;28;20193;-71
2021/01/02 09:22:16;;;;;;;83.67;39.07;;;;;;;;;;5062611;28;20169;-72
2021/01/02 09:24:41;;;;;;;78.57;39.83;;;;;;;;;;5061344;28;20195;-71
2021/01/02 09:27:07;;;;;;;84.73;39.17;;;;;;;;;;5057489;28;20185;-72
2021/01/02 09:29:38;;;;;;;77.73;38.67;;;;;;;;;;5062688;28;20185;-72
2021/01/02 09:32:10;;;;;;;79.90;38.83;;;;;;;;;;5055685;28;20625;-72
2021/01/02 09:34:35;;;;;;;82.43;38.77;;;;;;;;;;5061902;28;20196;-72
2021/01/02 09:37:01;;;;;;;81.00;38.97;;;;;;;;;;5047788;28;20711;-72
2021/01/02 09:39:28;;;;;;;79.07;40.50;;;;;;;;;;5085054;28;20280;-72
2021/01/02 09:41:53;;;;;;;82.03;38.37;;;;;;;;;;5077706;28;20180;-72
2021/01/02 09:44:19;;;;;;;87.70;39.13;;;;;;;;;;5088877;28;20188;-71
2021/01/02 09:46:49;;;;;;;81.77;39.10;;;;;;;;;;5060670;28;20184;-71
2021/01/02 09:49:14;;;;;;;85.43;39.93;;;;;;;;;;5088839;28;20180;-71
2021/01/02 09:51:39;;;;;;;85.50;39.63;;;;;;;;;;5075478;28;20215;-71
2021/01/02 09:54:05;;;;;;;79.03;39.60;;;;;;;;;;5087372;28;20187;-71
2021/01/02 09:56:30;;;;;;;87.57;41.10;;;;;;;;;;5077203;28;20172;-71
2021/01/02 09:58:55;;;;;;;84.37;39.93;;;;;;;;;;5086847;28;20196;-71
2021/01/02 10:01:21;;;;;;;87.80;40.60;;;;;;;;;;5082946;28;20176;-71
2021/01/02 10:03:46;;;;;;;78.27;37.90;;;;;;;;;;5076149;28;20180;-71
2021/01/02 10:06:11;;;;;;;90.93;40.93;;;;;;;;;;5087481;28;20196;-71
2021/01/02 10:08:37;;;;;;;87.70;41.57;;;;;;;;;;5077623;28;20623;-71
2021/01/02 10:11:04;;;;;;;81.10;38.53;;;;;;;;;;5085767;28;20203;-71
2021/01/02 10:13:29;;;;;;;90.07;40.20;;;;;;;;;;5075467;28;20644;-71
2021/01/02 10:15:54;;;;;;;88.50;41.43;;;;;;;;;;5084627;28;20255;-71
2021/01/02 10:18:20;;;;;;;87.10;40.13;;;;;;;;;;5078384;28;20705;-71
2021/01/02 10:20:45;;;;;;;92.00;41.93;;;;;;;;;;5086765;28;20180;-71
2021/01/02 10:23:10;;;;;;;80.43;37.77;;;;;;;;;;5058452;28;20207;-71
2021/01/02 10:25:36;;;;;;;83.63;40.53;;;;;;;;;;5086689;28;20188;-71
2021/01/02 10:28:01;;;;;;;84.30;38.90;;;;;;;;;;5058069;28;20180;-72
2021/01/02 10:30:26;;;;;;;83.83;39.80;;;;;;;;;;5086181;28;20746;-71
2021/01/02 10:32:52;;;;;;;81.23;39.40;;;;;;;;;;5086577;28;20184;-71
2021/01/02 10:35:18;;;;;;;80.77;38.53;;;;;;;;;;5078651;28;20182;-71
2021/01/02 10:37:46;;;;;;;90.27;39.70;;;;;;;;;;5068341;28;20224;-71
2021/01/02 10:40:13;;;;;;;84.13;38.90;;;;;;;;;;5075930;28;20208;-73
2021/01/02 10:42:39;;;;;;;87.13;39.53;;;;;;;;;;5087882;28;20203;-71
2021/01/02 10:45:05;;;;;;;83.80;37.60;;;;;;;;;;5058908;28;20183;-71
2021/01/02 10:47:31;;;;;;;79.33;37.47;;;;;;;;;;5085060;28;20191;-71
2021/01/02 10:49:57;;;;;;;82.07;39.67;;;;;;;;;;5076487;28;20262;-71
2021/01/02 10:52:25;;;;;;;85.90;39.53;;;;;;;;;;5084725;28;20222;-71
2021/01/02 10:54:52;;;;;;;85.73;40.53;;;;;;;;;;5077750;28;20582;-71
2021/01/02 10:57:18;;;;;;;88.87;42.40;;;;;;;;;;5083588;28;20233;-71
2021/01/02 10:59:47;;;;;;;80.97;39.27;;;;;;;;;;5078442;28;20792;-71
2021/01/02 11:02:13;;;;;;;84.23;40.33;;;;;;;;;;5084328;28;20220;-71
2021/01/02 11:04:39;;;;;;;85.57;41.73;;;;;;;;;;5085274;28;20693;-71
2021/01/02 11:07:05;;;;;;;88.53;41.27;;;;;;;;;;5079764;28;20208;-71
2021/01/02 11:09:31;;;;;;;85.07;41.50;;;;;;;;;;5069153;28;20230;-71
2021/01/02 11:11:56;;;;;;;83.90;40.00;;;;;;;;;;5075565;28;20250;-71
2021/01/02 11:14:22;;;;;;;79.93;39.20;;;;;;;;;;5086261;28;20195;-71
2021/01/02 11:16:48;;;;;;;80.33;39.23;;;;;;;;;;5073649;28;20185;-71
2021/01/02 11:19:22;;;;;;;75.07;37.30;;;;;;;;;;5087185;28;20529;-71
2021/01/02 11:21:49;;;;;;;70.23;36.60;;;;;;;;;;5050914;28;20505;-71
2021/01/02 11:24:18;;;;;;;80.23;39.27;;;;;;;;;;5085318;28;20614;-71
2021/01/02 11:26:50;;;;;;;82.50;40.17;;;;;;;;;;5074946;28;20215;-72
2021/01/02 11:29:19;;;;;;;79.03;38.70;;;;;;;;;;5086663;28;20219;-71
2021/01/02 11:31:45;;;;;;;84.10;40.63;;;;;;;;;;5050190;28;20292;-71
2021/01/02 11:34:11;;;;;;;82.50;40.07;;;;;;;;;;5087122;28;20199;-71
2021/01/02 11:36:36;;;;;;;92.40;41.33;;;;;;;;;;5074163;28;20267;-71
2021/01/02 11:39:05;;;;;;;80.67;40.37;;;;;;;;;;5085944;28;20207;-71
2021/01/02 11:41:34;;;;;;;77.00;38.60;;;;;;;;;;5078343;28;20542;-71
2021/01/02 11:44:00;;;;;;;81.27;39.20;;;;;;;;;;5081258;28;20191;-71
2021/01/02 11:46:29;;;;;;;82.23;40.03;;;;;;;;;;5082410;28;20180;-71
2021/01/02 11:48:55;;;;;;;85.17;40.43;;;;;;;;;;5057160;28;20295;-71
2021/01/02 11:51:20;;;;;;;79.47;39.27;;;;;;;;;;5083044;28;20291;-71
2021/01/02 11:53:45;;;;;;;78.47;38.97;;;;;;;;;;5054168;28;20553;-71
2021/01/02 11:56:11;;;;;;;75.23;37.83;;;;;;;;;;5081636;28;20268;-71
2021/01/02 11:58:37;;;;;;;77.10;39.23;;;;;;;;;;5077095;28;20211;-72
2021/01/02 12:01:02;;;;;;;75.53;37.30;;;;;;;;;;5063551;28;20222;-72
2021/01/02 12:03:27;;;;;;;76.63;40.23;;;;;;;;;;5076999;28;20188;-72
2021/01/02 12:05:53;;;;;;;73.73;37.43;;;;;;;;;;5083549;28;20208;-71
2021/01/02 12:08:18;;;;;;;75.97;38.07;;;;;;;;;;4372103;28;10000688;-72
2021/01/02 12:10:45;;;;;;;78.07;37.43;;;;;;;;;;5079640;28;20286;-71
2021/01/02 12:13:10;;;;;;;78.23;37.47;;;;;;;;;;5073887;28;20199;-71
2021/01/02 12:15:35;;;;;;;81.23;39.93;;;;;;;;;;5077521;28;20184;-71
2021/01/02 12:18:01;;;;;;;77.40;37.83;;;;;;;;;;5082331;28;20187;-71
2021/01/02 12:20:26;;;;;;;78.10;38.27;;;;;;;;;;5072369;28;20183;-71
2021/01/02 12:22:51;;;;;;;84.97;40.63;;;;;;;;;;5054349;28;20184;-71
2021/01/02 12:25:17;;;;;;;76.40;37.93;;;;;;;;;;5069294;28;20202;-71
2021/01/02 12:27:42;;;;;;;76.23;37.63;;;;;;;;;;5082432;28;20215;-71
2021/01/02 12:30:08;;;;;;;78.77;37.70;;;;;;;;;;5071949;28;20704;-71
2021/01/02 12:32:34;;;;;;;72.37;36.50;;;;;;;;;;5076217;28;20183;-71
2021/01/02 12:34:59;;;;;;;75.40;37.43;;;;;;;;;;5069284;28;20705;-71
2021/01/02 12:37:24;;;;;;;74.10;36.90;;;;;;;;;;5081099;28;20227;-71
2021/01/02 12:39:51;;;;;;;73.23;36.77;;;;;;;;;;5068993;28;20722;-71
2021/01/02 12:42:16;;;;;;;71.67;35.60;;;;;;;;;;5066248;28;20267;-71
2021/01/02 12:44:42;;;;;;;77.13;36.80;;;;;;;;;;5073469;28;20274;-72
2021/01/02 12:47:11;;;;;;;76.83;37.40;;;;;;;;;;5076216;28;20204;-72
2021/01/02 12:49:37;;;;;;;81.03;37.43;;;;;;;;;;5080217;28;20180;-72
2021/01/02 12:52:06;;;;;;;73.13;37.33;;;;;;;;;;5071854;28;20204;-72
2021/01/02 12:54:32;;;;;;;71.57;36.20;;;;;;;;;;5079655;28;20535;-71
2021/01/02 12:56:57;;;;;;;72.27;37.40;;;;;;;;;;5070582;28;20553;-72
2021/01/02 12:59:28;;;;;;;82.67;39.60;;;;;;;;;;5060132;28;20190;-72
2021/01/02 13:01:56;;;;;;;79.53;36.80;;;;;;;;;;5072998;28;20179;-71
2021/01/02 13:04:22;;;;;;;72.77;36.87;;;;;;;;;;5080482;28;20176;-72
2021/01/02 13:06:59;;;;;;;71.33;35.77;;;;;;;;;;5068373;28;20230;-72
2021/01/02 13:09:25;;;;;;;75.43;37.13;;;;;;;;;;5077535;28;20575;-72
2021/01/02 13:11:53;;;;;;;70.87;34.80;;;;;;;;;;5070574;28;20196;-72
2021/01/02 13:14:20;;;;;;;68.27;35.13;;;;;;;;;;5065281;28;20180;-72
2021/01/02 13:16:49;;;;;;;82.33;36.80;;;;;;;;;;5075037;28;20184;-72
2021/01/02 13:19:21;;;;;;;82.62;39.06;;;;;;;;;;4912003;28;10000672;-72
2021/01/02 13:21:48;;;;;;;71.80;37.47;;;;;;;;;;5071693;28;20935;-72
2021/01/02 13:24:15;;;;;;;76.23;35.77;;;;;;;;;;5087271;28;20191;-72
2021/01/02 13:26:40;;;;;;;76.50;37.63;;;;;;;;;;5087842;28;20564;-72
2021/01/02 13:29:06;;;;;;;72.17;35.10;;;;;;;;;;5058116;28;20184;-72
2021/01/02 13:31:38;;;;;;;77.93;37.10;;;;;;;;;;5063330;28;20204;-71
2021/01/02 13:34:03;;;;;;;81.80;35.83;;;;;;;;;;5080548;28;20551;-71
2021/01/02 13:36:29;;;;;;;71.13;36.57;;;;;;;;;;5086556;28;20215;-72
2021/01/02 13:38:54;;;;;;;70.27;34.17;;;;;;;;;;5061227;28;20191;-72
2021/01/02 13:41:25;;;;;;;67.57;33.77;;;;;;;;;;5071280;28;20588;-72
2021/01/02 13:43:50;;;;;;;66.17;32.83;;;;;;;;;;5078839;28;20188;-71
2021/01/02 13:46:18;;;;;;;67.87;33.47;;;;;;;;;;5086349;28;20207;-71
2021/01/02 13:48:44;;;;;;;71.13;33.63;;;;;;;;;;5075124;28;20188;-72
2021/01/02 13:51:10;;;;;;;66.93;33.57;;;;;;;;;;5085714;28;20204;-72
2021/01/02 13:53:35;;;;;;;70.07;34.33;;;;;;;;;;5078470;28;20184;-72
2021/01/02 13:56:00;;;;;;;67.23;33.87;;;;;;;;;;5085868;28;20184;-71
2021/01/02 13:58:26;;;;;;;69.77;34.67;;;;;;;;;;5087158;28;20203;-71
2021/01/02 14:00:51;;;;;;;57.90;32.40;;;;;;;;;;5067305;28;20713;-71
2021/01/02 14:03:16;;;;;;;67.80;32.63;;;;;;;;;;5088600;28;20229;-72
2021/01/02 14:05:42;;;;;;;68.63;33.77;;;;;;;;;;5075501;28;20275;-71
2021/01/02 14:08:07;;;;;;;75.43;34.00;;;;;;;;;;5089658;28;20627;-72
2021/01/02 14:10:32;;;;;;;71.93;33.33;;;;;;;;;;5059163;28;20208;-72
2021/01/02 14:12:58;;;;;;;64.40;32.00;;;;;;;;;;5089357;28;20274;-72
2021/01/02 14:15:23;;;;;;;61.23;31.17;;;;;;;;;;5079541;28;20704;-72
2021/01/02 14:17:48;;;;;;;61.30;30.47;;;;;;;;;;5088048;28;20180;-72
2021/01/02 14:20:14;;;;;;;67.37;31.47;;;;;;;;;;5080296;28;20180;-72
2021/01/02 14:22:43;;;;;;;66.33;34.47;;;;;;;;;;5088593;28;20184;-72
2021/01/02 14:25:10;;;;;;;67.57;33.73;;;;;;;;;;5077372;28;20222;-72
2021/01/02 14:27:35;;;;;;;63.70;32.07;;;;;;;;;;5073464;28;20176;-72
2021/01/02 14:30:01;;;;;;;66.93;32.83;;;;;;;;;;5084259;28;20238;-72